To NAV CANADA Home Page Login to a new session Search on AWWS site Feedback and Comments Disclaimer Vers la page française équivalente Tips FAQ What's new on the site To the Forecasts and Observations / NOTAM section To "File a Flight Plan" website Publications and other links Update of the User's profile FIC Telephone Numbers My Weather Data Folder Route Weather Data Regional Weather Data Local Weather Data To the Forecasts and Observations / NOTAM section
Request Generated 07/30/2016 at 01:57:03 UTC . Weather information available at that time is displayed.

METAR/TAF

CHURCHILL/MB    (show WxCam)

METAR CYYQ 300100Z 14006KT 15SM BKN055 17/08 A3002 RMK SC7 SLP169
DENSITY ALT 200FT=
METAR CYYQ 300000Z 13007KT 15SM BKN060 17/07 A3002 RMK SC7 SLP167
DENSITY ALT 200FT=
METAR CYYQ 292300Z 09006KT 15SM BKN060 17/09 A3003 RMK SC7 SLP171
DENSITY ALT 200FT=

TAF CYYQ 292338Z 3000/3024 09008KT P6SM BKN060 TEMPO 3000/3006 P6SM
-SHRA
BECMG 3001/3003 12012KT
FM300600 15012KT P6SM BKN050 BKN120
FM301200 14012KT P6SM -SHRA BKN080 PROB30 3012/3016 1/2SM FG
VV002
FM301800 13012KT 5SM -SHRA BR BKN008 OVC040
FM302100 12012G22KT 3/4SM BR OVC006
RMK NXT FCST BY 300600Z=
Your time UTC time
Weather data provided by Environment Canada and NAV CANADA